sensor_id;sensor_type;location;lat;lon;timestamp;pressure;altitude;pressure_sealevel;temperature;humidity
72395;BME280;60384;48.152;11.614;2023-09-07T00:25:28;95680.19;;;18.11;49.52
72395;BME280;60384;48.152;11.614;2023-09-07T00:58:04;95563.81;;;17.09;50.35
72395;BME280;60384;48.152;11.614;2023-09-07T01:01:11;95509.28;;;16.78;50.17
72395;BME280;60384;48.152;11.614;2023-09-07T01:04:15;95906.66;;;19.22;50.34
72395;BME280;60384;48.152;11.614;2023-09-07T01:07:20;95730.94;;;18.02;50.06
72395;BME280;60384;48.152;11.614;2023-09-07T01:10:25;95665.34;;;17.73;50.25
72395;BME280;60384;48.152;11.614;2023-09-07T01:13:30;95667.66;;;17.69;50.58
72395;BME280;60384;48.152;11.614;2023-09-07T01:16:33;95844.16;;;18.79;50.76
72395;BME280;60384;48.152;11.614;2023-09-07T01:19:37;95669.31;;;17.71;50.49
72395;BME280;60384;48.152;11.614;2023-09-07T01:22:46;95624.59;;;17.40;50.70
72395;BME280;60384;48.152;11.614;2023-09-07T01:25:48;95562.63;;;16.93;50.76
72395;BME280;60384;48.152;11.614;2023-09-07T01:28:51;95653.75;;;17.43;50.63
72395;BME280;60384;48.152;11.614;2023-09-07T01:31:54;95711.34;;;17.72;50.76
72395;BME280;60384;48.152;11.614;2023-09-07T01:34:56;95891.78;;;18.96;50.57
72395;BME280;60384;48.152;11.614;2023-09-07T01:38:00;95843.06;;;18.68;50.34
72395;BME280;60384;48.152;11.614;2023-09-07T01:41:03;95646.44;;;17.20;50.66
72395;BME280;60384;48.152;11.614;2023-09-07T01:44:07;95743.59;;;17.90;50.48
72395;BME280;60384;48.152;11.614;2023-09-07T01:47:12;95573.13;;;16.83;51.14
72395;BME280;60384;48.152;11.614;2023-09-07T01:50:17;95878.72;;;18.58;51.16
72395;BME280;60384;48.152;11.614;2023-09-07T01:53:20;95720.94;;;17.38;51.71
72395;BME280;60384;48.152;11.614;2023-09-07T01:56:25;95898.63;;;18.57;51.14
72395;BME280;60384;48.152;11.614;2023-09-07T01:59:27;95890.19;;;18.54;51.22
72395;BME280;60384;48.152;11.614;2023-09-07T02:02:29;95885.25;;;18.51;50.99
72395;BME280;60384;48.152;11.614;2023-09-07T02:05:33;95889.81;;;18.50;51.13
72395;BME280;60384;48.152;11.614;2023-09-07T02:08:39;95703.66;;;17.15;51.21
72395;BME280;60384;48.152;11.614;2023-09-07T02:11:41;95715.41;;;17.32;51.30
72395;BME280;60384;48.152;11.614;2023-09-07T02:14:45;95885.09;;;18.34;51.27
72395;BME280;60384;48.152;11.614;2023-09-07T02:17:47;95889.91;;;18.32;51.82
72395;BME280;60384;48.152;11.614;2023-09-07T02:20:55;95878.50;;;18.18;51.75
72395;BME280;60384;48.152;11.614;2023-09-07T02:24:04;95848.09;;;17.99;51.99
72395;BME280;60384;48.152;11.614;2023-09-07T02:27:06;95644.56;;;16.79;52.06
72395;BME280;60384;48.152;11.614;2023-09-07T02:30:09;95889.78;;;18.27;51.77
72395;BME280;60384;48.152;11.614;2023-09-07T02:33:13;95910.28;;;18.28;51.82
72395;BME280;60384;48.152;11.614;2023-09-07T02:36:14;95896.78;;;18.28;51.51
72395;BME280;60384;48.152;11.614;2023-09-07T02:39:18;95897.50;;;18.23;51.37
72395;BME280;60384;48.152;11.614;2023-09-07T02:42:24;95803.00;;;17.65;51.42
72395;BME280;60384;48.152;11.614;2023-09-07T02:45:31;95557.41;;;16.02;51.91
72395;BME280;60384;48.152;11.614;2023-09-07T02:48:37;95887.41;;;18.19;51.99
72395;BME280;60384;48.152;11.614;2023-09-07T02:51:39;95897.38;;;18.18;51.95
72395;BME280;60384;48.152;11.614;2023-09-07T02:54:43;95896.78;;;18.16;51.93
72395;BME280;60384;48.152;11.614;2023-09-07T02:57:46;95687.47;;;16.85;52.01
72395;BME280;60384;48.152;11.614;2023-09-07T03:00:47;95895.13;;;18.15;51.71
72395;BME280;60384;48.152;11.614;2023-09-07T03:03:53;95589.78;;;16.07;51.76
72395;BME280;60384;48.152;11.614;2023-09-07T03:06:55;95890.19;;;18.12;51.49
72395;BME280;60384;48.152;11.614;2023-09-07T03:10:04;95793.16;;;17.41;51.75
72395;BME280;60384;48.152;11.614;2023-09-07T03:13:07;95456.31;;;15.34;51.68
72395;BME280;60384;48.152;11.614;2023-09-07T03:16:10;95707.59;;;16.83;51.95
72395;BME280;60384;48.152;11.614;2023-09-07T03:19:12;95892.00;;;17.88;51.88
72395;BME280;60384;48.152;11.614;2023-09-07T03:22:14;95626.19;;;16.21;52.07
72395;BME280;60384;48.152;11.614;2023-09-07T03:25:18;95544.69;;;15.54;52.24
72395;BME280;60384;48.152;11.614;2023-09-07T03:28:22;95771.00;;;16.90;52.33
72395;BME280;60384;48.152;11.614;2023-09-07T03:31:28;95631.63;;;16.14;52.46
72395;BME280;60384;48.152;11.614;2023-09-07T03:34:30;95892.31;;;17.80;52.44
72395;BME280;60384;48.152;11.614;2023-09-07T03:37:32;95863.56;;;17.56;52.40
72395;BME280;60384;48.152;11.614;2023-09-07T03:40:35;95638.31;;;16.12;52.63
72395;BME280;60384;48.152;11.614;2023-09-07T03:43:37;95858.50;;;17.48;52.76
72395;BME280;60384;48.152;11.614;2023-09-07T03:46:41;95607.75;;;15.88;52.60
72395;BME280;60384;48.152;11.614;2023-09-07T03:49:46;95434.84;;;14.73;52.76
72395;BME280;60384;48.152;11.614;2023-09-07T03:52:48;95903.50;;;17.59;52.77
72395;BME280;60384;48.152;11.614;2023-09-07T03:55:54;95564.84;;;15.38;52.83
72395;BME280;60384;48.152;11.614;2023-09-07T03:58:58;95495.91;;;14.96;53.41
72395;BME280;60384;48.152;11.614;2023-09-07T04:02:00;95894.78;;;17.45;52.58
72395;BME280;60384;48.152;11.614;2023-09-07T04:05:03;95852.25;;;16.99;53.14
72395;BME280;60384;48.152;11.614;2023-09-07T04:08:07;95500.66;;;14.93;53.10
72395;BME280;60384;48.152;11.614;2023-09-07T04:11:10;95902.34;;;17.37;52.84
72395;BME280;60384;48.152;11.614;2023-09-07T04:14:15;95578.53;;;15.30;52.93
72395;BME280;60384;48.152;11.614;2023-09-07T04:17:19;95863.50;;;16.89;53.14
72395;BME280;60384;48.152;11.614;2023-09-07T04:20:24;95536.91;;;15.03;53.02
72395;BME280;60384;48.152;11.614;2023-09-07T04:23:30;95930.59;;;17.27;52.98
72395;BME280;60384;48.152;11.614;2023-09-07T04:26:37;95940.75;;;17.25;53.39
72395;BME280;60384;48.152;11.614;2023-09-07T04:29:43;95749.13;;;16.25;53.52
72395;BME280;60384;48.152;11.614;2023-09-07T04:32:50;95686.59;;;15.75;53.90
72395;BME280;60384;48.152;11.614;2023-09-07T04:35:53;95582.47;;;15.03;53.57
72395;BME280;60384;48.152;11.614;2023-09-07T04:38:56;95747.09;;;15.96;54.06
72395;BME280;60384;48.152;11.614;2023-09-07T04:42:00;95530.41;;;14.54;54.09
72395;BME280;60384;48.152;11.614;2023-09-07T04:45:05;95604.88;;;14.83;53.99
72395;BME280;60384;48.152;11.614;2023-09-07T04:48:09;95758.47;;;15.73;54.01
72395;BME280;60384;48.152;11.614;2023-09-07T04:51:25;95570.63;;;14.54;54.01
72395;BME280;60384;48.152;11.614;2023-09-07T04:54:27;95943.50;;;16.76;54.36
72395;BME280;60384;48.152;11.614;2023-09-07T04:57:36;95738.88;;;15.66;54.02
72395;BME280;60384;48.152;11.614;2023-09-07T05:00:41;95494.13;;;14.20;54.26
72395;BME280;60384;48.152;11.614;2023-09-07T05:03:49;95821.72;;;16.19;54.00
72395;BME280;60384;48.152;11.614;2023-09-07T05:06:52;95924.94;;;16.92;54.08
72395;BME280;60384;48.152;11.614;2023-09-07T05:09:55;95600.69;;;14.94;53.81
72395;BME280;60384;48.152;11.614;2023-09-07T05:13:00;95929.22;;;17.00;53.86
72395;BME280;60384;48.152;11.614;2023-09-07T05:16:02;95896.78;;;16.70;53.71
72395;BME280;60384;48.152;11.614;2023-09-07T05:19:06;95870.34;;;16.67;54.09
72395;BME280;60384;48.152;11.614;2023-09-07T05:22:08;95914.94;;;16.99;54.18
72395;BME280;60384;48.152;11.614;2023-09-07T05:25:13;95928.72;;;17.10;53.92
72395;BME280;60384;48.152;11.614;2023-09-07T05:28:17;95912.03;;;17.01;54.09
72395;BME280;60384;48.152;11.614;2023-09-07T05:31:20;95782.25;;;16.19;54.03
72395;BME280;60384;48.152;11.614;2023-09-07T05:34:21;95928.94;;;17.08;53.61
72395;BME280;60384;48.152;11.614;2023-09-07T05:37:24;95941.88;;;17.18;54.14
72395;BME280;60384;48.152;11.614;2023-09-07T05:40:25;95931.47;;;17.21;53.50
72395;BME280;60384;48.152;11.614;2023-09-07T05:43:29;95937.69;;;17.22;53.95
72395;BME280;60384;48.152;11.614;2023-09-07T05:46:31;95857.16;;;16.65;53.79
72395;BME280;60384;48.152;11.614;2023-09-07T05:49:33;95942.31;;;17.15;53.62
72395;BME280;60384;48.152;11.614;2023-09-07T05:52:35;95912.03;;;17.01;54.26
72395;BME280;60384;48.152;11.614;2023-09-07T05:55:37;95953.56;;;17.30;53.76
72395;BME280;60384;48.152;11.614;2023-09-07T05:58:41;95952.44;;;17.38;53.37
72395;BME280;60384;48.152;11.614;2023-09-07T06:01:43;95929.38;;;17.23;53.54
72395;BME280;60384;48.152;11.614;2023-09-07T06:04:45;95960.81;;;17.48;53.54
72395;BME280;60384;48.152;11.614;2023-09-07T06:07:47;95738.50;;;16.12;53.49
72395;BME280;60384;48.152;11.614;2023-09-07T06:10:50;95958.19;;;17.59;53.81
72395;BME280;60384;48.152;11.614;2023-09-07T06:13:53;95927.69;;;17.47;53.81
72395;BME280;60384;48.152;11.614;2023-09-07T06:16:55;95936.22;;;17.62;53.44
72395;BME280;60384;48.152;11.614;2023-09-07T06:19:57;95963.31;;;17.86;53.33
72395;BME280;60384;48.152;11.614;2023-09-07T06:23:00;95936.66;;;17.78;53.11
72395;BME280;60384;48.152;11.614;2023-09-07T06:26:02;95943.84;;;17.84;53.20
72395;BME280;60384;48.152;11.614;2023-09-07T06:29:06;95925.66;;;17.79;53.68
72395;BME280;60384;48.152;11.614;2023-09-07T06:32:08;95964.94;;;18.05;53.26
72395;BME280;60384;48.152;11.614;2023-09-07T06:35:10;95958.41;;;18.13;53.27
72395;BME280;60384;48.152;11.614;2023-09-07T06:38:12;95862.91;;;17.60;53.23
72395;BME280;60384;48.152;11.614;2023-09-07T06:41:15;95884.00;;;17.82;53.51
72395;BME280;60384;48.152;11.614;2023-09-07T06:44:18;95936.38;;;18.16;53.51
72395;BME280;60384;48.152;11.614;2023-09-07T06:47:20;95896.81;;;17.98;53.76
72395;BME280;60384;48.152;11.614;2023-09-07T06:50:22;95931.50;;;18.24;53.71
72395;BME280;60384;48.152;11.614;2023-09-07T06:53:24;95929.97;;;18.28;53.55
72395;BME280;60384;48.152;11.614;2023-09-07T06:56:27;95958.28;;;18.49;53.80
72395;BME280;60384;48.152;11.614;2023-09-07T06:59:32;95938.22;;;18.45;53.43
72395;BME280;60384;48.152;11.614;2023-09-07T07:02:34;95793.94;;;17.59;53.29
72395;BME280;60384;48.152;11.614;2023-09-07T07:05:36;95957.88;;;18.64;53.76
72395;BME280;60384;48.152;11.614;2023-09-07T07:08:38;95948.41;;;18.61;53.72
72395;BME280;60384;48.152;11.614;2023-09-07T07:11:39;95945.59;;;18.68;53.16
72395;BME280;60384;48.152;11.614;2023-09-07T07:14:45;95866.66;;;18.08;53.87
72395;BME280;60384;48.152;11.614;2023-09-07T07:17:47;95813.59;;;17.78;53.68
72395;BME280;60384;48.152;11.614;2023-09-07T07:20:48;95960.19;;;18.90;53.43
72395;BME280;60384;48.152;11.614;2023-09-07T07:23:51;95842.16;;;18.09;53.63
72395;BME280;60384;48.152;11.614;2023-09-07T07:26:53;95963.94;;;19.01;52.96
72395;BME280;60384;48.152;11.614;2023-09-07T07:29:57;95897.31;;;18.48;53.48
72395;BME280;60384;48.152;11.614;2023-09-07T07:32:59;95974.03;;;19.05;53.63
72395;BME280;60384;48.152;11.614;2023-09-07T07:36:01;95759.25;;;17.81;53.63
72395;BME280;60384;48.152;11.614;2023-09-07T07:39:04;95974.16;;;19.22;53.24
72395;BME280;60384;48.152;11.614;2023-09-07T07:42:08;95975.69;;;19.30;53.28
72395;BME280;60384;48.152;11.614;2023-09-07T07:45:12;95717.03;;;17.63;53.38
72395;BME280;60384;48.152;11.614;2023-09-07T07:48:15;95944.69;;;19.21;53.46
72395;BME280;60384;48.152;11.614;2023-09-07T07:51:18;95786.41;;;18.21;53.76
72395;BME280;60384;48.152;11.614;2023-09-07T07:54:23;95941.88;;;19.39;53.18
72395;BME280;60384;48.152;11.614;2023-09-07T07:57:26;95972.78;;;19.66;53.38
72395;BME280;60384;48.152;11.614;2023-09-07T08:00:31;95969.81;;;19.80;53.23
72395;BME280;60384;48.152;11.614;2023-09-07T08:03:33;95944.44;;;19.46;53.36
72395;BME280;60384;48.152;11.614;2023-09-07T08:06:36;95902.66;;;19.48;53.09
72395;BME280;60384;48.152;11.614;2023-09-07T08:09:38;95967.75;;;19.98;53.00
72395;BME280;60384;48.152;11.614;2023-09-07T08:12:40;95885.50;;;19.54;53.36
72395;BME280;60384;48.152;11.614;2023-09-07T08:15:43;95964.53;;;20.13;52.39
72395;BME280;60384;48.152;11.614;2023-09-07T08:18:46;95955.94;;;20.16;52.72
72395;BME280;60384;48.152;11.614;2023-09-07T08:21:50;95910.34;;;19.80;53.06
72395;BME280;60384;48.152;11.614;2023-09-07T08:24:52;95909.81;;;19.94;53.15
72395;BME280;60384;48.152;11.614;2023-09-07T08:27:54;95959.41;;;20.28;52.85
72395;BME280;60384;48.152;11.614;2023-09-07T08:31:00;95909.06;;;20.10;53.12
72395;BME280;60384;48.152;11.614;2023-09-07T08:34:06;95966.06;;;20.49;53.47
72395;BME280;60384;48.152;11.614;2023-09-07T08:37:09;95971.69;;;20.59;52.88
72395;BME280;60384;48.152;11.614;2023-09-07T08:40:11;95827.69;;;19.67;53.05
72395;BME280;60384;48.152;11.614;2023-09-07T08:43:14;95939.34;;;20.53;53.02
72395;BME280;60384;48.152;11.614;2023-09-07T08:46:19;95957.41;;;20.80;53.29
72395;BME280;60384;48.152;11.614;2023-09-07T08:49:22;95910.56;;;20.63;53.01
72395;BME280;60384;48.152;11.614;2023-09-07T08:52:24;95954.41;;;20.94;52.53
72395;BME280;60384;48.152;11.614;2023-09-07T08:55:26;95945.13;;;21.06;52.84
72395;BME280;60384;48.152;11.614;2023-09-07T08:58:28;95737.16;;;19.81;52.89
72395;BME280;60384;48.152;11.614;2023-09-07T09:01:33;95958.53;;;21.30;52.96
72395;BME280;60384;48.152;11.614;2023-09-07T09:04:35;95882.19;;;20.83;52.60
72395;BME280;60384;48.152;11.614;2023-09-07T09:07:37;95944.78;;;21.36;52.66
72395;BME280;60384;48.152;11.614;2023-09-07T09:10:39;95929.44;;;21.42;52.44
72395;BME280;60384;48.152;11.614;2023-09-07T09:13:42;95773.81;;;20.56;52.78
72395;BME280;60384;48.152;11.614;2023-09-07T09:16:49;95937.63;;;21.69;52.53
72395;BME280;60384;48.152;11.614;2023-09-07T09:19:52;95955.63;;;21.97;52.42
72395;BME280;60384;48.152;11.614;2023-09-07T09:22:54;95820.63;;;21.28;52.27
72395;BME280;60384;48.152;11.614;2023-09-07T09:25:56;95880.47;;;21.70;52.06
72395;BME280;60384;48.152;11.614;2023-09-07T09:29:00;95915.53;;;21.99;52.16
72395;BME280;60384;48.152;11.614;2023-09-07T09:32:05;95948.19;;;22.31;52.23
72395;BME280;60384;48.152;11.614;2023-09-07T09:35:08;95886.66;;;22.09;51.82
72395;BME280;60384;48.152;11.614;2023-09-07T09:38:12;95944.13;;;22.55;52.05
72395;BME280;60384;48.152;11.614;2023-09-07T09:41:15;95934.94;;;22.61;51.75
72395;BME280;60384;48.152;11.614;2023-09-07T09:44:20;95903.69;;;22.59;51.65
72395;BME280;60384;48.152;11.614;2023-09-07T09:47:27;95911.16;;;22.73;51.47
72395;BME280;60384;48.152;11.614;2023-09-07T09:50:29;95899.75;;;22.76;51.80
72395;BME280;60384;48.152;11.614;2023-09-07T09:53:32;95901.78;;;22.86;51.46
72395;BME280;60384;48.152;11.614;2023-09-07T09:56:34;95909.03;;;23.07;51.46
72395;BME280;60384;48.152;11.614;2023-09-07T09:59:36;95933.63;;;23.33;51.09
72395;BME280;60384;48.152;11.614;2023-09-07T10:02:40;95942.69;;;23.43;51.38
72395;BME280;60384;48.152;11.614;2023-09-07T10:05:44;95899.66;;;23.30;51.07
72395;BME280;60384;48.152;11.614;2023-09-07T10:08:58;95925.31;;;23.44;50.96
72395;BME280;60384;48.152;11.614;2023-09-07T10:12:01;95935.03;;;23.77;50.94
72395;BME280;60384;48.152;11.614;2023-09-07T10:15:05;95875.91;;;23.52;50.54
72395;BME280;60384;48.152;11.614;2023-09-07T10:18:11;95930.78;;;24.02;50.60
72395;BME280;60384;48.152;11.614;2023-09-07T10:21:13;95940.09;;;24.16;50.11
72395;BME280;60384;48.152;11.614;2023-09-07T10:24:24;95924.97;;;24.35;49.88
72395;BME280;60384;48.152;11.614;2023-09-07T10:27:36;95795.44;;;23.57;50.14
72395;BME280;60384;48.152;11.614;2023-09-07T10:30:38;95693.03;;;23.05;50.08
72395;BME280;60384;48.152;11.614;2023-09-07T10:33:42;95869.34;;;24.21;49.91
72395;BME280;60384;48.152;11.614;2023-09-07T10:36:44;95867.19;;;24.18;49.52
72395;BME280;60384;48.152;11.614;2023-09-07T10:39:47;95874.59;;;24.48;49.89
72395;BME280;60384;48.152;11.614;2023-09-07T10:42:49;95750.66;;;23.84;49.71
72395;BME280;60384;48.152;11.614;2023-09-07T10:45:51;95914.16;;;25.01;49.47
72395;BME280;60384;48.152;11.614;2023-09-07T10:48:54;95908.69;;;25.16;49.42
72395;BME280;60384;48.152;11.614;2023-09-07T10:52:05;95817.41;;;24.58;49.29
72395;BME280;60384;48.152;11.614;2023-09-07T10:55:10;95913.59;;;25.24;49.50
72395;BME280;60384;48.152;11.614;2023-09-07T10:58:12;95863.75;;;24.99;48.96
72395;BME280;60384;48.152;11.614;2023-09-07T11:01:13;95903.22;;;25.37;49.47
72395;BME280;60384;48.152;11.614;2023-09-07T11:04:16;95911.63;;;25.60;48.77
72395;BME280;60384;48.152;11.614;2023-09-07T11:07:20;95842.72;;;25.09;49.13
72395;BME280;60384;48.152;11.614;2023-09-07T11:10:23;95849.00;;;25.15;49.20
72395;BME280;60384;48.152;11.614;2023-09-07T11:13:25;95909.97;;;25.75;49.00
72395;BME280;60384;48.152;11.614;2023-09-07T11:16:29;95775.69;;;25.08;48.62
72395;BME280;60384;48.152;11.614;2023-09-07T11:19:33;95908.53;;;25.98;48.59
72395;BME280;60384;48.152;11.614;2023-09-07T11:22:36;95908.78;;;26.01;48.33
72395;BME280;60384;48.152;11.614;2023-09-07T11:25:39;95885.56;;;25.99;48.59
72395;BME280;60384;48.152;11.614;2023-09-07T11:28:45;95840.06;;;25.84;47.96
72395;BME280;60384;48.152;11.614;2023-09-07T11:31:47;95906.41;;;26.44;47.95
72395;BME280;60384;48.152;11.614;2023-09-07T11:34:51;95906.28;;;26.64;47.87
72395;BME280;60384;48.152;11.614;2023-09-07T11:37:54;95842.16;;;26.51;47.21
72395;BME280;60384;48.152;11.614;2023-09-07T11:40:56;95891.38;;;27.19;46.74
72395;BME280;60384;48.152;11.614;2023-09-07T11:43:58;95872.44;;;27.52;46.32
72395;BME280;60384;48.152;11.614;2023-09-07T11:47:00;95820.94;;;27.59;45.73
72395;BME280;60384;48.152;11.614;2023-09-07T11:50:04;95872.25;;;28.57;45.09
72395;BME280;60384;48.152;11.614;2023-09-07T11:53:07;95885.69;;;29.43;43.96
72395;BME280;60384;48.152;11.614;2023-09-07T11:56:09;95891.41;;;30.28;42.46
72395;BME280;60384;48.152;11.614;2023-09-07T11:59:11;95871.38;;;31.00;41.02
72395;BME280;60384;48.152;11.614;2023-09-07T12:02:13;95880.81;;;31.83;40.47
72395;BME280;60384;48.152;11.614;2023-09-07T12:05:17;95881.28;;;32.25;39.82
72395;BME280;60384;48.152;11.614;2023-09-07T12:08:20;95823.91;;;32.61;39.17
72395;BME280;60384;48.152;11.614;2023-09-07T12:11:21;95873.94;;;33.84;37.95
72395;BME280;60384;48.152;11.614;2023-09-07T12:14:23;95803.72;;;33.85;37.56
72395;BME280;60384;48.152;11.614;2023-09-07T12:17:25;95869.91;;;34.91;36.57
72395;BME280;60384;48.152;11.614;2023-09-07T12:20:28;95880.00;;;35.28;36.06
72395;BME280;60384;48.152;11.614;2023-09-07T12:23:30;95885.88;;;35.72;35.89
72395;BME280;60384;48.152;11.614;2023-09-07T12:26:32;95789.44;;;35.41;35.48
72395;BME280;60384;48.152;11.614;2023-09-07T12:29:34;95879.38;;;36.49;34.91
72395;BME280;60384;48.152;11.614;2023-09-07T12:32:36;95871.13;;;36.90;34.96
72395;BME280;60384;48.152;11.614;2023-09-07T12:35:39;95855.59;;;37.16;33.93
72395;BME280;60384;48.152;11.614;2023-09-07T12:38:41;95870.47;;;37.36;33.90
72395;BME280;60384;48.152;11.614;2023-09-07T12:41:43;95849.53;;;37.54;33.43
72395;BME280;60384;48.152;11.614;2023-09-07T12:44:45;95839.56;;;37.38;33.25
72395;BME280;60384;48.152;11.614;2023-09-07T12:47:48;95868.94;;;37.67;32.64
72395;BME280;60384;48.152;11.614;2023-09-07T12:50:51;95869.47;;;37.29;33.02
72395;BME280;60384;48.152;11.614;2023-09-07T12:53:53;95861.88;;;37.13;32.83
72395;BME280;60384;48.152;11.614;2023-09-07T12:56:55;95834.19;;;37.17;33.00
72395;BME280;60384;48.152;11.614;2023-09-07T12:59:57;95863.06;;;37.56;32.36
72395;BME280;60384;48.152;11.614;2023-09-07T13:02:59;95859.19;;;37.73;31.94
72395;BME280;60384;48.152;11.614;2023-09-07T13:06:02;95866.03;;;37.63;31.30
72395;BME280;60384;48.152;11.614;2023-09-07T13:09:04;95859.03;;;37.53;32.00
72395;BME280;60384;48.152;11.614;2023-09-07T13:12:06;95858.66;;;37.39;31.68
72395;BME280;60384;48.152;11.614;2023-09-07T13:15:09;95826.47;;;37.10;31.13
72395;BME280;60384;48.152;11.614;2023-09-07T13:18:11;95861.97;;;37.17;31.05
72395;BME280;60384;48.152;11.614;2023-09-07T13:21:14;95822.88;;;36.82;30.85
72395;BME280;60384;48.152;11.614;2023-09-07T13:24:16;95804.25;;;36.30;30.79
72395;BME280;60384;48.152;11.614;2023-09-07T13:27:18;95852.50;;;36.90;31.03
72395;BME280;60384;48.152;11.614;2023-09-07T13:30:20;95810.69;;;37.14;29.94
72395;BME280;60384;48.152;11.614;2023-09-07T13:33:22;95808.25;;;37.25;29.87
72395;BME280;60384;48.152;11.614;2023-09-07T13:36:27;95810.25;;;37.12;29.84
72395;BME280;60384;48.152;11.614;2023-09-07T13:39:29;95715.19;;;36.47;29.60
72395;BME280;60384;48.152;11.614;2023-09-07T13:42:31;95840.91;;;37.16;29.75
72395;BME280;60384;48.152;11.614;2023-09-07T13:45:33;95745.03;;;36.38;30.07
72395;BME280;60384;48.152;11.614;2023-09-07T13:48:35;95844.56;;;37.04;30.12
72395;BME280;60384;48.152;11.614;2023-09-07T13:51:39;95840.91;;;36.88;30.21
72395;BME280;60384;48.152;11.614;2023-09-07T13:54:41;95827.66;;;36.69;29.47
72395;BME280;60384;48.152;11.614;2023-09-07T13:57:43;95847.56;;;36.71;30.39
72395;BME280;60384;48.152;11.614;2023-09-07T14:00:45;95845.69;;;36.63;30.25
72395;BME280;60384;48.152;11.614;2023-09-07T14:03:47;95792.72;;;36.28;30.06
72395;BME280;60384;48.152;11.614;2023-09-07T14:06:50;95793.28;;;36.34;30.18
72395;BME280;60384;48.152;11.614;2023-09-07T14:09:53;95833.94;;;36.42;29.66
72395;BME280;60384;48.152;11.614;2023-09-07T14:12:56;95843.19;;;36.22;29.97
72395;BME280;60384;48.152;11.614;2023-09-07T14:15:58;95778.00;;;35.67;30.01
72395;BME280;60384;48.152;11.614;2023-09-07T14:18:59;95790.47;;;35.48;30.16
72395;BME280;60384;48.152;11.614;2023-09-07T14:22:03;95827.63;;;35.47;30.08
72395;BME280;60384;48.152;11.614;2023-09-07T14:25:05;95781.47;;;35.06;30.46
72395;BME280;60384;48.152;11.614;2023-09-07T14:28:08;95795.75;;;34.96;30.44
72395;BME280;60384;48.152;11.614;2023-09-07T14:31:09;95774.13;;;34.57;30.59
72395;BME280;60384;48.152;11.614;2023-09-07T14:34:12;95830.50;;;34.43;31.47
72395;BME280;60384;48.152;11.614;2023-09-07T14:37:16;95773.91;;;33.53;31.86
72395;BME280;60384;48.152;11.614;2023-09-07T14:40:18;95830.84;;;33.74;32.03
72395;BME280;60384;48.152;11.614;2023-09-07T14:43:20;95818.44;;;33.51;32.01
72395;BME280;60384;48.152;11.614;2023-09-07T14:46:22;95838.28;;;33.44;32.50
72395;BME280;60384;48.152;11.614;2023-09-07T14:49:25;95821.31;;;32.99;31.87
72395;BME280;60384;48.152;11.614;2023-09-07T14:52:28;95837.88;;;32.82;32.33
72395;BME280;60384;48.152;11.614;2023-09-07T14:55:30;95834.13;;;32.61;32.60
72395;BME280;60384;48.152;11.614;2023-09-07T14:58:32;95838.19;;;32.37;32.70
72395;BME280;60384;48.152;11.614;2023-09-07T15:01:34;95766.72;;;31.75;32.94
72395;BME280;60384;48.152;11.614;2023-09-07T15:04:36;95829.81;;;32.03;33.48
72395;BME280;60384;48.152;11.614;2023-09-07T15:07:39;95830.31;;;32.05;33.29
72395;BME280;60384;48.152;11.614;2023-09-07T15:10:41;95832.59;;;32.03;33.50
72395;BME280;60384;48.152;11.614;2023-09-07T15:13:43;95832.38;;;31.91;33.32
72395;BME280;60384;48.152;11.614;2023-09-07T15:16:46;95744.41;;;30.84;33.78
72395;BME280;60384;48.152;11.614;2023-09-07T15:19:48;95783.38;;;30.78;33.92
72395;BME280;60384;48.152;11.614;2023-09-07T15:22:51;95839.75;;;30.89;33.93
72395;BME280;60384;48.152;11.614;2023-09-07T15:25:53;95825.31;;;30.47;34.63
72395;BME280;60384;48.152;11.614;2023-09-07T15:28:55;95746.72;;;29.74;35.06
72395;BME280;60384;48.152;11.614;2023-09-07T15:31:57;95811.50;;;29.89;34.59
72395;BME280;60384;48.152;11.614;2023-09-07T15:34:58;95837.22;;;29.79;34.82
72395;BME280;60384;48.152;11.614;2023-09-07T15:38:02;95732.47;;;28.90;35.40
72395;BME280;60384;48.152;11.614;2023-09-07T15:41:04;95775.97;;;28.96;35.57
72395;BME280;60384;48.152;11.614;2023-09-07T15:44:06;95831.97;;;29.23;35.50
72395;BME280;60384;48.152;11.614;2023-09-07T15:47:07;95837.72;;;29.08;35.30
72395;BME280;60384;48.152;11.614;2023-09-07T15:50:09;95822.53;;;28.83;35.73
72395;BME280;60384;48.152;11.614;2023-09-07T15:53:13;95840.09;;;28.82;35.66
72395;BME280;60384;48.152;11.614;2023-09-07T15:56:15;95838.06;;;28.68;35.77
72395;BME280;60384;48.152;11.614;2023-09-07T15:59:17;95843.50;;;28.55;35.91
72395;BME280;60384;48.152;11.614;2023-09-07T16:02:19;95785.25;;;28.12;35.66
72395;BME280;60384;48.152;11.614;2023-09-07T16:05:21;95732.22;;;27.65;35.87
72395;BME280;60384;48.152;11.614;2023-09-07T16:08:27;95737.59;;;27.51;36.00
72395;BME280;60384;48.152;11.614;2023-09-07T16:11:29;95822.25;;;28.09;36.01
72395;BME280;60384;48.152;11.614;2023-09-07T16:14:31;95779.22;;;27.72;36.16
72395;BME280;60384;48.152;11.614;2023-09-07T16:17:33;95756.72;;;27.51;35.63
72395;BME280;60384;48.152;11.614;2023-09-07T16:20:35;95838.34;;;27.92;35.52
72395;BME280;60384;48.152;11.614;2023-09-07T16:23:39;95835.38;;;27.88;36.09
72395;BME280;60384;48.152;11.614;2023-09-07T16:26:41;95817.00;;;27.70;36.10
72395;BME280;60384;48.152;11.614;2023-09-07T16:29:43;95840.09;;;27.83;35.77
72395;BME280;60384;48.152;11.614;2023-09-07T16:32:45;95785.78;;;27.47;36.20
72395;BME280;60384;48.152;11.614;2023-09-07T16:35:47;95835.88;;;27.72;36.30
72395;BME280;60384;48.152;11.614;2023-09-07T16:38:50;95836.44;;;27.69;36.08
72395;BME280;60384;48.152;11.614;2023-09-07T16:41:52;95795.22;;;27.36;36.20
72395;BME280;60384;48.152;11.614;2023-09-07T16:44:54;95629.38;;;26.21;36.40
72395;BME280;60384;48.152;11.614;2023-09-07T16:47:56;95766.69;;;26.94;36.14
72395;BME280;60384;48.152;11.614;2023-09-07T16:50:58;95846.81;;;27.43;36.50